Las Cruces International Airport
KLRU : rendu visible

Aérodrome :











RETROUVEZ-NOUS SUR...

 
LOGIN :

S'inscrire | Disclaimer

   EN    FR    IT 

 









Légende :    VFR   VFR Marginal   IFR   IFR Intensif   IFR Très Intensif
Visi : 
Plafond : 
>= 8 km
>= 3000ft
5 à 8 km
1000 à 3000 ft
1500m à 5 km
500 à 1000 ft
800 à 1500m
200 à 500 ft
< 800m
< 200 ft
Symboles :   Orages  Brouillard  Fortes neiges  Fortes précipitations  Vent > 20 kt






- Altitude de l'aérodrome : 4456 ft
- Code IATA : LRU


KLRU - Las Cruces International

DERNIER METAR :
  • 222315Z AUTO 27010G17KT 10SM SCT049 13/01 A3010 RMK AO2 T01270005

METARs EXPIRÉS :
  • 222255Z AUTO 25009KT 10SM BKN049 13/01 A3010 RMK AO2 T01270009
  • 222235Z AUTO 25009KT 10SM BKN049 13/01 A3010 RMK AO2 T01310009
  • 222215Z AUTO 26012KT 10SM BKN049 14/01 A3010 RMK AO2 T01350014
  • 222155Z AUTO 24009G16KT 10SM BKN049 BKN055 14/01 A3010 RMK AO2 T01360012
  • 222135Z AUTO 26009G14KT 10SM SCT049 SCT055 13/01 A3010 RMK AO2 T01320012
  • 222115Z AUTO 26009KT 10SM SCT045 12/02 A3010 RMK AO2 T01210016
  • 222055Z AUTO 26011KT 10SM CLR 13/01 A3010 RMK AO2 T01330014
  • 222035Z AUTO 27016G20KT 10SM SCT045 14/02 A3010 RMK AO2 T01350019
  • 222015Z AUTO 28015G19KT 10SM SCT045 13/02 A3011 RMK AO2 T01300018

TAF KLRU
Valide du 22 à 18h jusqu'au 23 à 18h UTC


221734Z 2218/2318 26011KT P6SM FEW250
FM230400 32005KT P6SM FEW250
FM230500 35006KT P6SM FEW250



MET'MAP, la Météo Aéronautique d'un coup d'oeil ! - Copyright ORBIFLY Décembre 2007 - Disclaimer

ORBIFLY MET'MAP TEAM :

Programmation & Développement : Alexandra Zaïnal
Conception & Développement : Baudouin d'Aumeries
Co-Programmation & Développement : Marc-Olivier Méhu
Soutien technique & logistique : Manuel Goepfert

Contact : metmap@orbifly.com




SOURCES & CREDITS :

   NOAA       Earth
Advisory